createdAt,value
2022-12-23T00:01:06.017Z,1.63
2022-12-23T00:04:08.364Z,2.03
2022-12-23T00:07:09.751Z,1.98
2022-12-23T00:10:11.267Z,2.78
2022-12-23T00:13:31.257Z,1.70
2022-12-23T00:16:35.444Z,1.35
2022-12-23T00:19:36.724Z,1.80
2022-12-23T00:22:56.741Z,1.58
2022-12-23T00:25:57.979Z,1.88
2022-12-23T00:28:59.335Z,2.13
2022-12-23T00:32:00.648Z,1.88
2022-12-23T00:35:02.050Z,1.73
2022-12-23T00:38:03.337Z,1.52
2022-12-23T00:41:36.393Z,1.42
2022-12-23T00:44:37.690Z,1.13
2022-12-23T00:47:57.753Z,1.63
2022-12-23T00:50:59.038Z,1.02
2022-12-23T00:54:00.357Z,0.90
2022-12-23T00:57:01.873Z,1.00
2022-12-23T01:00:03.383Z,1.27
2022-12-23T01:03:23.323Z,1.10
2022-12-23T01:06:24.675Z,1.08
2022-12-23T01:09:25.990Z,0.98
2022-12-23T01:12:27.434Z,1.20
2022-12-23T01:15:29.169Z,1.02
2022-12-23T01:18:30.505Z,1.40
2022-12-23T01:21:31.986Z,1.13
2022-12-23T01:24:33.624Z,1.27
2022-12-23T01:27:34.891Z,0.90
2022-12-23T01:30:37.218Z,1.08
2022-12-23T01:33:38.473Z,1.30
2022-12-23T01:36:39.712Z,1.10
2022-12-23T01:39:40.986Z,1.25
2022-12-23T01:42:45.266Z,1.15
2022-12-23T01:45:47.076Z,0.98
2022-12-23T01:48:51.022Z,1.15
2022-12-23T01:51:52.424Z,1.05
2022-12-23T01:54:54.349Z,1.48
2022-12-23T01:57:57.347Z,1.15
2022-12-23T02:01:17.781Z,1.23
2022-12-23T02:04:20.852Z,1.23
2022-12-23T02:07:40.646Z,1.02
2022-12-23T02:10:56.352Z,1.42
2022-12-23T02:14:21.559Z,1.40
2022-12-23T02:17:22.809Z,1.13
2022-12-23T02:20:39.155Z,1.42
2022-12-23T02:23:52.272Z,1.23
2022-12-23T02:26:58.998Z,1.40
2022-12-23T02:30:06.344Z,1.13
2022-12-23T02:33:18.379Z,2.40
2022-12-23T02:36:22.665Z,1.60
2022-12-23T02:39:32.218Z,1.65
2022-12-23T02:42:36.564Z,1.40
2022-12-23T02:45:43.784Z,1.63
2022-12-23T02:49:14.601Z,2.00
2022-12-23T02:52:18.323Z,1.90
2022-12-23T02:55:22.136Z,1.98
2022-12-23T02:58:27.146Z,1.38
2022-12-23T03:01:29.676Z,1.70
2022-12-23T03:04:31.187Z,1.17
2022-12-23T03:07:34.637Z,1.20
2022-12-23T03:11:01.958Z,1.30
2022-12-23T03:14:21.911Z,1.60
2022-12-23T03:17:41.642Z,1.35
2022-12-23T03:20:51.330Z,1.67
2022-12-23T03:24:08.442Z,1.45
2022-12-23T03:27:22.386Z,1.40
2022-12-23T03:30:23.999Z,1.13
2022-12-23T03:33:33.776Z,1.63
2022-12-23T03:36:38.186Z,1.10
2022-12-23T03:39:43.117Z,1.48
2022-12-23T03:42:46.519Z,1.50
2022-12-23T03:45:50.598Z,1.33
2022-12-23T03:48:53.967Z,1.45
2022-12-23T03:52:04.065Z,1.58
2022-12-23T03:55:08.688Z,1.40
2022-12-23T04:01:30.101Z,1.73
2022-12-23T04:04:53.386Z,2.15
2022-12-23T04:07:58.771Z,1.70
2022-12-23T04:11:00.750Z,1.98
2022-12-23T04:14:02.048Z,1.67
2022-12-23T04:17:03.323Z,1.77
2022-12-23T04:20:05.902Z,2.40
2022-12-23T04:23:07.161Z,2.17
2022-12-23T04:26:08.437Z,2.22
2022-12-23T04:29:09.738Z,2.45
2022-12-23T04:32:11.145Z,2.28
2022-12-23T04:35:12.761Z,2.90
2022-12-23T04:38:14.047Z,2.53
2022-12-23T04:41:15.431Z,2.72
2022-12-23T04:44:16.673Z,2.95
2022-12-23T04:47:18.028Z,2.67
2022-12-23T04:50:19.339Z,3.05
2022-12-23T04:53:20.696Z,4.18
2022-12-23T04:56:22.054Z,2.85
2022-12-23T04:59:23.322Z,2.90
2022-12-23T05:02:24.905Z,3.22
2022-12-23T05:05:26.263Z,3.22
2022-12-23T05:08:27.620Z,2.85
2022-12-23T05:11:28.893Z,3.28
2022-12-23T05:14:30.157Z,2.47
2022-12-23T05:17:31.411Z,2.55
2022-12-23T05:20:32.696Z,2.78
2022-12-23T05:23:34.131Z,2.78
2022-12-23T05:26:35.402Z,2.47
2022-12-23T05:29:36.667Z,2.60
2022-12-23T05:32:39.231Z,3.28
2022-12-23T05:35:40.498Z,2.58
2022-12-23T05:38:41.738Z,2.85
2022-12-23T05:41:43.014Z,3.33
2022-12-23T05:44:44.531Z,5.18
2022-12-23T05:47:45.765Z,7.35
2022-12-23T05:50:49.073Z,8.95
2022-12-23T05:53:50.368Z,5.72
2022-12-23T05:56:51.698Z,4.10
2022-12-23T05:59:53.615Z,4.18
2022-12-23T06:02:55.134Z,3.03
2022-12-23T06:05:56.843Z,2.40
2022-12-23T06:09:00.055Z,3.08
2022-12-23T06:12:01.636Z,3.55
2022-12-23T06:15:03.185Z,3.55
2022-12-23T06:18:04.523Z,4.20
2022-12-23T06:21:05.832Z,4.22
2022-12-23T06:24:07.230Z,3.35
2022-12-23T06:27:08.468Z,2.90
2022-12-23T06:30:10.340Z,1.58
2022-12-23T06:33:11.606Z,1.33
2022-12-23T06:36:12.845Z,1.08
2022-12-23T06:39:14.199Z,1.67
2022-12-23T06:42:15.598Z,1.02
2022-12-23T06:45:16.950Z,0.95
2022-12-23T06:48:18.517Z,1.02
2022-12-23T06:51:19.799Z,1.13
2022-12-23T06:54:21.087Z,1.17
2022-12-23T06:57:22.359Z,1.98
2022-12-23T07:00:25.889Z,2.65
2022-12-23T07:03:27.447Z,1.83
2022-12-23T07:06:29.252Z,1.38
2022-12-23T07:09:30.499Z,1.52
2022-12-23T07:12:31.823Z,2.05
2022-12-23T07:15:33.142Z,3.53
2022-12-23T07:18:34.713Z,2.47
2022-12-23T07:21:36.705Z,1.73
2022-12-23T07:24:38.097Z,2.53
2022-12-23T07:27:39.340Z,2.03
2022-12-23T07:30:40.584Z,1.65
2022-12-23T07:33:42.047Z,1.50
2022-12-23T07:36:43.322Z,1.65
2022-12-23T07:39:44.594Z,1.60
2022-12-23T07:42:48.053Z,1.92
2022-12-23T07:45:52.594Z,2.63
2022-12-23T07:48:58.823Z,2.63
2022-12-23T07:52:00.097Z,3.45
2022-12-23T07:55:01.449Z,4.15
2022-12-23T07:58:02.877Z,2.88
2022-12-23T08:01:05.476Z,3.83
2022-12-23T08:04:06.745Z,3.63
2022-12-23T08:07:08.074Z,2.40
2022-12-23T08:10:09.543Z,2.05
2022-12-23T08:13:10.817Z,2.13
2022-12-23T08:16:12.385Z,1.95
2022-12-23T08:19:13.838Z,2.75
2022-12-23T08:22:15.171Z,2.13
2022-12-23T08:25:16.442Z,2.45
2022-12-23T08:28:17.731Z,1.83
2022-12-23T08:31:21.857Z,1.58
2022-12-23T08:34:23.257Z,1.55
2022-12-23T08:37:24.866Z,1.42
2022-12-23T08:40:26.091Z,1.08
2022-12-23T08:43:33.570Z,1.52
2022-12-23T08:46:37.408Z,1.67
2022-12-23T08:49:38.833Z,1.52
2022-12-23T08:52:40.151Z,1.45
2022-12-23T08:55:42.995Z,1.52
2022-12-23T08:58:45.457Z,1.35
2022-12-23T09:01:47.419Z,1.70
2022-12-23T09:04:48.962Z,1.77
2022-12-23T09:07:50.223Z,1.77
2022-12-23T09:10:51.457Z,1.23
2022-12-23T09:13:53.120Z,1.40
2022-12-23T09:16:54.376Z,1.70
2022-12-23T09:19:55.632Z,2.33
2022-12-23T09:22:56.907Z,2.03
2022-12-23T09:25:58.291Z,1.63
2022-12-23T09:29:00.043Z,2.03
2022-12-23T09:32:01.359Z,2.38
2022-12-23T09:35:02.690Z,2.35
2022-12-23T09:38:03.968Z,2.13
2022-12-23T09:41:11.352Z,1.75
2022-12-23T09:44:12.707Z,1.67
2022-12-23T09:47:19.177Z,2.55
2022-12-23T09:50:29.194Z,2.28
2022-12-23T09:53:47.364Z,2.08
2022-12-23T09:56:48.615Z,1.92
2022-12-23T09:59:54.241Z,2.25
2022-12-23T10:03:02.200Z,1.90
2022-12-23T10:06:15.716Z,3.45
2022-12-23T10:09:17.415Z,7.50
2022-12-23T10:12:23.619Z,4.85
2022-12-23T10:15:30.982Z,3.05
2022-12-23T10:18:32.477Z,6.18
2022-12-23T10:21:46.726Z,2.97
2022-12-23T10:24:49.237Z,2.63
2022-12-23T10:27:50.562Z,5.57
2022-12-23T10:31:30.900Z,4.10
2022-12-23T10:34:34.938Z,4.25
2022-12-23T10:37:51.564Z,3.20
2022-12-23T10:41:07.065Z,2.55
2022-12-23T10:44:24.081Z,2.67
2022-12-23T10:47:36.447Z,4.10
2022-12-23T10:50:47.256Z,2.78
2022-12-23T10:56:50.623Z,3.20
2022-12-23T10:59:52.175Z,4.03
2022-12-23T11:03:12.675Z,6.88
2022-12-23T11:06:14.175Z,3.17
2022-12-23T11:09:18.987Z,3.47
2022-12-23T11:12:24.336Z,4.95
2022-12-23T11:15:33.488Z,3.63
2022-12-23T11:18:40.322Z,4.07
2022-12-23T11:21:54.087Z,3.58
2022-12-23T11:24:55.467Z,3.00
2022-12-23T11:27:58.383Z,3.03
2022-12-23T11:31:12.300Z,3.38
2022-12-23T11:34:18.481Z,2.85
2022-12-23T11:37:31.836Z,2.33
2022-12-23T11:40:37.150Z,3.45
2022-12-23T11:43:39.061Z,3.15
2022-12-23T11:46:40.380Z,3.00
2022-12-23T11:49:49.819Z,2.97
2022-12-23T11:52:52.150Z,2.97
2022-12-23T11:56:02.659Z,2.40
2022-12-23T11:59:06.924Z,2.60
2022-12-23T12:02:26.125Z,2.30
2022-12-23T12:05:30.602Z,1.80
2022-12-23T12:11:54.573Z,2.75
2022-12-23T12:14:57.295Z,2.50
2022-12-23T12:17:59.142Z,2.65
2022-12-23T12:21:09.566Z,7.45
2022-12-23T12:24:19.813Z,8.10
2022-12-23T12:27:25.725Z,3.90
2022-12-23T12:30:31.466Z,4.40
2022-12-23T12:33:42.894Z,2.80
2022-12-23T12:36:51.069Z,2.45
2022-12-23T12:39:54.273Z,3.17
2022-12-23T12:42:58.207Z,2.80
2022-12-23T12:46:18.586Z,2.85
2022-12-23T12:49:28.792Z,2.55
2022-12-23T12:52:31.792Z,2.15
2022-12-23T12:55:34.792Z,2.65
2022-12-23T12:58:36.283Z,3.13
2022-12-23T13:02:00.980Z,2.75
2022-12-23T13:05:20.914Z,2.42
2022-12-23T13:08:28.815Z,2.65
2022-12-23T13:11:45.220Z,2.63
2022-12-23T13:14:52.987Z,2.85
2022-12-23T13:18:04.033Z,2.20
2022-12-23T13:21:14.469Z,2.40
2022-12-23T13:24:18.770Z,2.70
2022-12-23T13:27:21.899Z,2.35
2022-12-23T13:30:24.206Z,2.78
2022-12-23T13:33:28.267Z,2.72
2022-12-23T13:36:29.565Z,2.88
2022-12-23T13:39:33.792Z,2.25
2022-12-23T13:42:38.292Z,2.30
2022-12-23T13:45:40.514Z,2.90
2022-12-23T13:49:04.856Z,2.42
2022-12-23T13:52:10.487Z,2.00
2022-12-23T13:55:30.441Z,2.53
2022-12-23T13:58:32.056Z,2.53
2022-12-23T14:01:43.801Z,1.92
2022-12-23T14:04:58.687Z,3.13
2022-12-23T14:08:01.381Z,3.15
2022-12-23T14:11:10.507Z,3.40
2022-12-23T14:14:32.023Z,2.88
2022-12-23T14:17:42.948Z,1.92
2022-12-23T14:20:44.263Z,2.90
2022-12-23T14:24:11.869Z,2.10
2022-12-23T14:27:13.119Z,2.50
2022-12-23T14:30:16.409Z,2.10
2022-12-23T14:33:23.496Z,2.20
2022-12-23T14:36:25.796Z,1.92
2022-12-23T14:39:31.649Z,2.30
2022-12-23T14:42:34.585Z,1.90
2022-12-23T14:45:41.568Z,1.80
2022-12-23T14:48:44.296Z,1.60
2022-12-23T14:51:45.666Z,1.52
2022-12-23T14:55:06.379Z,1.23
2022-12-23T14:58:08.198Z,1.23
2022-12-23T15:01:11.264Z,1.30
2022-12-23T15:04:35.985Z,1.00
2022-12-23T15:07:38.744Z,1.58
2022-12-23T15:10:40.044Z,0.93
2022-12-23T15:13:42.153Z,1.52
2022-12-23T15:16:45.158Z,1.30
2022-12-23T15:19:47.986Z,1.30
2022-12-23T15:22:49.606Z,1.30
2022-12-23T15:25:51.336Z,1.58
2022-12-23T15:28:52.738Z,1.25
2022-12-23T15:31:56.817Z,1.50
2022-12-23T15:35:03.608Z,1.40
2022-12-23T15:38:05.313Z,1.27
2022-12-23T15:41:13.787Z,1.30
2022-12-23T15:44:19.965Z,1.27
2022-12-23T15:47:26.623Z,1.45
2022-12-23T15:50:28.559Z,1.40
2022-12-23T15:53:37.120Z,1.35
2022-12-23T15:56:41.156Z,1.42
2022-12-23T15:59:43.456Z,1.27
2022-12-23T16:03:02.439Z,1.30
2022-12-23T16:06:06.577Z,1.40
2022-12-23T16:09:16.964Z,1.27
2022-12-23T16:12:25.474Z,1.42
2022-12-23T16:15:27.131Z,1.30
2022-12-23T16:18:31.614Z,1.50
2022-12-23T16:21:34.605Z,1.60
2022-12-23T16:24:35.949Z,1.45
2022-12-23T16:27:40.999Z,1.45
2022-12-23T16:30:43.498Z,1.35
2022-12-23T16:33:47.810Z,1.25
2022-12-23T16:36:49.191Z,1.45
2022-12-23T16:39:50.586Z,2.10
2022-12-23T16:42:51.886Z,1.65
2022-12-23T16:45:55.700Z,1.42
2022-12-23T16:48:58.724Z,1.73
2022-12-23T16:52:00.002Z,1.83
2022-12-23T16:55:01.261Z,1.67
2022-12-23T16:58:02.506Z,1.23
2022-12-23T17:01:04.752Z,1.20
2022-12-23T17:04:06.754Z,1.02
2022-12-23T17:07:13.841Z,0.80
2022-12-23T17:10:16.131Z,0.93
2022-12-23T17:13:18.276Z,0.75
2022-12-23T17:16:20.687Z,0.80
2022-12-23T17:19:27.976Z,1.02
2022-12-23T17:22:32.355Z,0.73
2022-12-23T17:25:51.066Z,0.90
2022-12-23T17:28:52.358Z,0.52
2022-12-23T17:31:54.077Z,0.43
2022-12-23T17:34:58.401Z,0.90
2022-12-23T17:38:00.614Z,0.90
2022-12-23T17:41:01.989Z,0.82
2022-12-23T17:44:05.391Z,1.27
2022-12-23T17:47:13.836Z,1.13
2022-12-23T17:50:15.194Z,1.10
2022-12-23T17:53:17.650Z,0.73
2022-12-23T17:56:19.644Z,1.17
2022-12-23T17:59:23.942Z,1.17
2022-12-23T18:02:27.101Z,0.73
2022-12-23T18:05:29.820Z,0.82
2022-12-23T18:08:31.131Z,0.63
2022-12-23T18:11:43.849Z,0.90
2022-12-23T18:14:45.167Z,1.17
2022-12-23T18:17:46.539Z,0.82
2022-12-23T18:20:48.595Z,0.88
2022-12-23T18:23:50.291Z,1.08
2022-12-23T18:26:51.592Z,1.10
2022-12-23T18:29:52.847Z,1.10
2022-12-23T18:32:54.100Z,1.13
2022-12-23T18:35:55.400Z,0.77
2022-12-23T18:38:57.177Z,1.08
2022-12-23T18:41:58.515Z,0.95
2022-12-23T18:44:59.810Z,1.00
2022-12-23T18:48:02.118Z,1.00
2022-12-23T18:51:03.477Z,1.30
2022-12-23T18:54:04.764Z,0.95
2022-12-23T18:57:06.137Z,1.23
2022-12-23T19:00:11.443Z,0.85
2022-12-23T19:03:23.882Z,0.85
2022-12-23T19:06:26.672Z,1.00
2022-12-23T19:09:28.162Z,0.80
2022-12-23T19:12:29.463Z,1.08
2022-12-23T19:15:31.106Z,0.88
2022-12-23T19:18:32.487Z,1.13
2022-12-23T19:21:33.821Z,0.85
2022-12-23T19:24:35.181Z,0.88
2022-12-23T19:27:38.841Z,1.20
2022-12-23T19:30:41.679Z,1.33
2022-12-23T19:33:44.557Z,1.30
2022-12-23T19:36:45.868Z,1.30
2022-12-23T19:39:47.287Z,1.23
2022-12-23T19:42:48.619Z,1.20
2022-12-23T19:45:59.571Z,0.90
2022-12-23T19:49:00.932Z,0.85
2022-12-23T19:52:02.610Z,0.93
2022-12-23T19:55:04.080Z,1.15
2022-12-23T19:58:05.323Z,0.80
2022-12-23T20:01:08.266Z,1.08
2022-12-23T20:04:10.260Z,1.75
2022-12-23T20:07:11.562Z,1.63
2022-12-23T20:10:12.842Z,1.65
2022-12-23T20:13:14.088Z,1.95
2022-12-23T20:16:15.442Z,1.35
2022-12-23T20:19:17.190Z,1.42
2022-12-23T20:22:18.471Z,1.52
2022-12-23T20:25:19.778Z,1.95
2022-12-23T20:28:21.192Z,1.83
2022-12-23T20:31:23.836Z,1.50
2022-12-23T20:34:25.205Z,1.67
2022-12-23T20:37:26.625Z,1.40
2022-12-23T20:40:27.907Z,2.33
2022-12-23T20:43:29.269Z,1.95
2022-12-23T20:46:30.685Z,2.53
2022-12-23T20:49:32.079Z,2.08
2022-12-23T20:52:33.424Z,2.42
2022-12-23T20:55:34.728Z,2.15
2022-12-23T20:58:54.888Z,2.35
2022-12-23T21:01:58.601Z,1.77
2022-12-23T21:04:59.985Z,1.70
2022-12-23T21:08:01.757Z,2.00
2022-12-23T21:11:03.685Z,1.98
2022-12-23T21:14:07.109Z,1.48
2022-12-23T21:17:08.769Z,1.23
2022-12-23T21:20:10.300Z,1.02
2022-12-23T21:23:11.615Z,1.00
2022-12-23T21:26:17.487Z,0.88
2022-12-23T21:29:19.302Z,1.05
2022-12-23T21:32:20.585Z,1.30
2022-12-23T21:35:21.854Z,0.95
2022-12-23T21:38:23.257Z,0.93
2022-12-23T21:41:27.384Z,1.13
2022-12-23T21:44:28.659Z,1.35
2022-12-23T21:47:29.958Z,0.90
2022-12-23T21:50:32.496Z,0.95
2022-12-23T21:53:34.521Z,0.93
2022-12-23T21:56:36.005Z,1.30
2022-12-23T21:59:37.283Z,1.23
2022-12-23T22:02:39.698Z,0.82
2022-12-23T22:05:41.054Z,1.23
2022-12-23T22:08:42.608Z,0.88
2022-12-23T22:11:44.390Z,0.75
2022-12-23T22:14:45.642Z,1.02
2022-12-23T22:17:46.948Z,0.98
2022-12-23T22:20:48.197Z,1.20
2022-12-23T22:23:50.270Z,1.02
2022-12-23T22:26:51.534Z,1.58
2022-12-23T22:29:52.831Z,1.75
2022-12-23T22:32:54.135Z,1.25
2022-12-23T22:35:56.179Z,1.30
2022-12-23T22:38:58.451Z,1.42
2022-12-23T22:41:59.779Z,1.10
2022-12-23T22:45:01.104Z,1.42
2022-12-23T22:48:02.576Z,1.42
2022-12-23T22:51:30.067Z,1.90
2022-12-23T22:54:31.431Z,1.13
2022-12-23T22:57:33.059Z,0.98
2022-12-23T23:00:34.306Z,1.40
2022-12-23T23:03:35.555Z,1.10
2022-12-23T23:06:38.448Z,1.08
2022-12-23T23:09:39.810Z,1.20
2022-12-23T23:12:41.159Z,0.93
2022-12-23T23:15:44.921Z,1.42
2022-12-23T23:18:46.203Z,1.20
2022-12-23T23:21:48.770Z,1.20
2022-12-23T23:24:50.520Z,0.93
2022-12-23T23:27:51.775Z,1.05
2022-12-23T23:31:16.742Z,1.08
2022-12-23T23:34:14.316Z,1.98
2022-12-23T23:37:15.700Z,1.27
2022-12-23T23:40:17.134Z,1.13
2022-12-23T23:43:18.584Z,1.35
2022-12-23T23:46:19.987Z,1.27
2022-12-23T23:49:21.515Z,0.93
2022-12-23T23:52:22.966Z,1.52
2022-12-23T23:55:24.233Z,1.23
2022-12-23T23:58:25.513Z,0.88
